Burden Lake, New York
Current Conditions -  °F | °C
As of 7:51 PM on Monday 20 Oct 2014 (Local Time) from KALB Reporting Station
Overcast Overcast  
Wind Chill: 52°   Ceiling: 14000
Heat Index: 52°   Visibility: 10mi
Dew Point: 36°   Wind: 5mph
Humidity: 54%   Direction: 170°S
Pressure: 29.94"   Gusts: NA
Location:  42.6497°N, 73.5273°W
Report Text: KALB 202351Z 17004KT 10SM FEW080 SCT110 OVC140 11/02 A2994 RMK AO2 SLP139 T01110022 10133 20111 58001
Loading
Personal Weather Stations






























Interactive Weather Map
Tropical Storm Tracking
New forecast layout! Learn more

10-Day Weather Forecast

Advertisements
Track Severe Weather on mobile